sensor_id;sensor_type;location;lat;lon;timestamp;pressure;altitude;pressure_sealevel;temperature;humidity
24868;BME280;12941;48.698;9.310;2024-02-21T00:00:35;98903.09999999999;;;12.47;55.782
24868;BME280;12941;48.698;9.310;2024-02-21T00:01:35;98913.5;;;12.43;55.8
24868;BME280;12941;48.698;9.310;2024-02-21T00:02:40;98917;;;12.41;55.829
24868;BME280;12941;48.698;9.310;2024-02-21T00:03:40;98917.1;;;12.39;55.882
24868;BME280;12941;48.698;9.310;2024-02-21T00:04:45;98918;;;12.38;55.934
24868;BME280;12941;48.698;9.310;2024-02-21T00:05:45;98913.8;;;12.37;56.021
24868;BME280;12941;48.698;9.310;2024-02-21T00:06:45;98913.8;;;12.36;56.127
24868;BME280;12941;48.698;9.310;2024-02-21T00:07:50;98917.3;;;12.35;56.093
24868;BME280;12941;48.698;9.310;2024-02-21T00:08:55;98909.7;;;12.33;55.982
24868;BME280;12941;48.698;9.310;2024-02-21T00:09:59;98914.8;;;12.33;55.885
24868;BME280;12941;48.698;9.310;2024-02-21T00:11:00;98906.4;;;12.3;55.901
24868;BME280;12941;48.698;9.310;2024-02-21T00:12:05;98907.3;;;12.29;55.911
24868;BME280;12941;48.698;9.310;2024-02-21T00:13:10;98904.1;;;12.25;55.853
24868;BME280;12941;48.698;9.310;2024-02-21T00:14:10;98913.59999999999;;;12.23;55.72
24868;BME280;12941;48.698;9.310;2024-02-21T00:15:15;98911.1;;;12.22;55.859
24868;BME280;12941;48.698;9.310;2024-02-21T00:16:20;98904.3;;;12.19;55.834
24868;BME280;12941;48.698;9.310;2024-02-21T00:17:25;98910.40000000001;;;12.18;56.061
24868;BME280;12941;48.698;9.310;2024-02-21T00:18:25;98904.5;;;12.16;56.036
24868;BME280;12941;48.698;9.310;2024-02-21T00:19:30;98907.8;;;12.18;55.995
24868;BME280;12941;48.698;9.310;2024-02-21T00:20:35;98900.9;;;12.19;56.027
24868;BME280;12941;48.698;9.310;2024-02-21T00:21:40;98906;;;12.2;55.868
24868;BME280;12941;48.698;9.310;2024-02-21T00:22:40;98905.2;;;12.2;55.662
24868;BME280;12941;48.698;9.310;2024-02-21T00:23:45;98896.6;;;12.19;55.813
24868;BME280;12941;48.698;9.310;2024-02-21T00:24:45;98901.8;;;12.19;55.877
24868;BME280;12941;48.698;9.310;2024-02-21T00:25:50;98901.8;;;12.19;55.953
24868;BME280;12941;48.698;9.310;2024-02-21T00:26:55;98898.29999999999;;;12.2;56.084
24868;BME280;12941;48.698;9.310;2024-02-21T00:28:00;98897.29999999999;;;12.23;56.087
24868;BME280;12941;48.698;9.310;2024-02-21T00:29:00;98897.29999999999;;;12.23;56.108
24868;BME280;12941;48.698;9.310;2024-02-21T00:30:05;98889.5;;;12.24;56.1
24868;BME280;12941;48.698;9.310;2024-02-21T00:31:10;98896.2;;;12.28;56.182
24868;BME280;12941;48.698;9.310;2024-02-21T00:32:15;98895.3;;;12.31;56.045
24868;BME280;12941;48.698;9.310;2024-02-21T00:33:16;98885;;;12.31;55.871
24868;BME280;12941;48.698;9.310;2024-02-21T00:34:20;98877.20000000001;;;12.32;55.765
24868;BME280;12941;48.698;9.310;2024-02-21T00:35:20;98878.09999999999;;;12.31;55.763
24868;BME280;12941;48.698;9.310;2024-02-21T00:36:25;98885.79999999999;;;12.31;55.828
24868;BME280;12941;48.698;9.310;2024-02-21T00:37:30;98880.7;;;12.31;55.871
24868;BME280;12941;48.698;9.310;2024-02-21T00:38:35;98872.90000000001;;;12.31;55.99
24868;BME280;12941;48.698;9.310;2024-02-21T00:39:35;98872.90000000001;;;12.31;56.143
24868;BME280;12941;48.698;9.310;2024-02-21T00:40:40;98872.1;;;12.31;56.088
24868;BME280;12941;48.698;9.310;2024-02-21T00:41:40;98867.8;;;12.31;56.045
24868;BME280;12941;48.698;9.310;2024-02-21T00:42:45;98866.09999999999;;;12.3;56.087
24868;BME280;12941;48.698;9.310;2024-02-21T00:43:45;98873.8;;;12.3;55.989
24868;BME280;12941;48.698;9.310;2024-02-21T00:44:50;98871.40000000001;;;12.27;56.201
24868;BME280;12941;48.698;9.310;2024-02-21T00:45:50;98871.40000000001;;;12.27;56.299
24868;BME280;12941;48.698;9.310;2024-02-21T00:46:55;98866.3;;;12.26;56.471
24868;BME280;12941;48.698;9.310;2024-02-21T00:47:55;98867.2;;;12.26;56.05
24868;BME280;12941;48.698;9.310;2024-02-21T00:49:00;98860.40000000001;;;12.25;56.231
24868;BME280;12941;48.698;9.310;2024-02-21T00:50:06;98866.3;;;12.26;55.918
24868;BME280;12941;48.698;9.310;2024-02-21T00:51:10;98855.2;;;12.25;55.56
24868;BME280;12941;48.698;9.310;2024-02-21T00:52:10;98863.8;;;12.24;55.407
24868;BME280;12941;48.698;9.310;2024-02-21T00:53:15;98863.09999999999;;;12.21;55.435
24868;BME280;12941;48.698;9.310;2024-02-21T00:54:15;98864.9;;;12.2;55.641
24868;BME280;12941;48.698;9.310;2024-02-21T00:55:20;98855.6;;;12.16;55.689
24868;BME280;12941;48.698;9.310;2024-02-21T00:56:20;98857.3;;;12.17;55.583
24868;BME280;12941;48.698;9.310;2024-02-21T00:57:25;98865.8;;;12.19;55.509
24868;BME280;12941;48.698;9.310;2024-02-21T00:58:25;98854.9;;;12.14;55.579
24868;BME280;12941;48.698;9.310;2024-02-21T00:59:30;98867.7;;;12.14;55.611
24868;BME280;12941;48.698;9.310;2024-02-21T01:00:30;98852.3;;;12.14;55.547
24868;BME280;12941;48.698;9.310;2024-02-21T01:01:35;98855.6;;;12.16;55.451
24868;BME280;12941;48.698;9.310;2024-02-21T01:02:35;98851.4;;;12.15;55.472
24868;BME280;12941;48.698;9.310;2024-02-21T01:03:40;98857.4;;;12.14;55.471
24868;BME280;12941;48.698;9.310;2024-02-21T01:04:45;98849;;;12.12;55.554
24868;BME280;12941;48.698;9.310;2024-02-21T01:05:50;98849;;;12.12;55.728
24868;BME280;12941;48.698;9.310;2024-02-21T01:06:50;98851.5;;;12.14;55.632
24868;BME280;12941;48.698;9.310;2024-02-21T01:07:56;98846.3;;;12.15;55.678
24868;BME280;12941;48.698;9.310;2024-02-21T01:09:00;98846.3;;;12.14;55.621
24868;BME280;12941;48.698;9.310;2024-02-21T01:10:06;98852.3;;;12.14;55.785
24868;BME280;12941;48.698;9.310;2024-02-21T01:11:06;98852.20000000001;;;12.16;55.873
24868;BME280;12941;48.698;9.310;2024-02-21T01:12:10;98845.4;;;12.16;55.906
24868;BME280;12941;48.698;9.310;2024-02-21T01:13:15;98847;;;12.17;56.07
24868;BME280;12941;48.698;9.310;2024-02-21T01:14:16;98843.5;;;12.18;56.071
24868;BME280;12941;48.698;9.310;2024-02-21T01:15:16;98849.5;;;12.19;56.061
24868;BME280;12941;48.698;9.310;2024-02-21T01:16:20;98845.2;;;12.19;56.072
24868;BME280;12941;48.698;9.310;2024-02-21T01:17:20;98846;;;12.2;56.052
24868;BME280;12941;48.698;9.310;2024-02-21T01:18:20;98843.5;;;12.2;56.236
24868;BME280;12941;48.698;9.310;2024-02-21T01:19:20;98837.40000000001;;;12.21;56.366
24868;BME280;12941;48.698;9.310;2024-02-21T01:20:21;98836.5;;;12.22;56.423
24868;BME280;12941;48.698;9.310;2024-02-21T01:21:21;98833.1;;;12.23;56.347
24868;BME280;12941;48.698;9.310;2024-02-21T01:22:26;98833.90000000001;;;12.23;56.369
24868;BME280;12941;48.698;9.310;2024-02-21T01:23:31;98827.9;;;12.24;56.327
24868;BME280;12941;48.698;9.310;2024-02-21T01:24:36;98829.5;;;12.25;56.502
24868;BME280;12941;48.698;9.310;2024-02-21T01:25:41;98828.7;;;12.25;56.534
24868;BME280;12941;48.698;9.310;2024-02-21T01:26:46;98822.6;;;12.26;56.481
24868;BME280;12941;48.698;9.310;2024-02-21T01:27:51;98821;;;12.25;56.805
24868;BME280;12941;48.698;9.310;2024-02-21T01:28:56;98816.7;;;12.25;57.011
24868;BME280;12941;48.698;9.310;2024-02-21T01:29:56;98820.9;;;12.26;56.84
24868;BME280;12941;48.698;9.310;2024-02-21T01:31:01;98813.3;;;12.25;56.578
24868;BME280;12941;48.698;9.310;2024-02-21T01:32:06;98807.3;;;12.24;56.457
24868;BME280;12941;48.698;9.310;2024-02-21T01:33:06;98812.40000000001;;;12.24;56.598
24868;BME280;12941;48.698;9.310;2024-02-21T01:34:11;98817.6;;;12.23;56.704
24868;BME280;12941;48.698;9.310;2024-02-21T01:35:16;98806.7;;;12.19;56.841
24868;BME280;12941;48.698;9.310;2024-02-21T01:36:16;98808.5;;;12.16;56.771
24868;BME280;12941;48.698;9.310;2024-02-21T01:37:21;98800.2;;;12.1;56.906
24868;BME280;12941;48.698;9.310;2024-02-21T01:38:26;98801.3;;;12.05;56.941
24868;BME280;12941;48.698;9.310;2024-02-21T01:39:26;98798.90000000001;;;12.02;56.569
24868;BME280;12941;48.698;9.310;2024-02-21T01:40:31;98794.9;;;11.96;56.466
24868;BME280;12941;48.698;9.310;2024-02-21T01:41:34;98799.3;;;11.93;56.472
24868;BME280;12941;48.698;9.310;2024-02-21T01:42:37;98791.09999999999;;;11.85;56.472
24868;BME280;12941;48.698;9.310;2024-02-21T01:43:41;98786.3;;;11.77;56.603
24868;BME280;12941;48.698;9.310;2024-02-21T01:44:46;98795.2;;;11.7;56.863
24868;BME280;12941;48.698;9.310;2024-02-21T01:45:52;98786;;;11.64;57.008
24868;BME280;12941;48.698;9.310;2024-02-21T01:46:51;98784.5;;;11.6;57.186
24868;BME280;12941;48.698;9.310;2024-02-21T01:47:56;98780.4;;;11.56;57.354
24868;BME280;12941;48.698;9.310;2024-02-21T01:48:56;98778;;;11.52;57.51
24868;BME280;12941;48.698;9.310;2024-02-21T01:49:56;98776.3;;;11.51;57.563
24868;BME280;12941;48.698;9.310;2024-02-21T01:51:01;98779.9;;;11.48;57.614
24868;BME280;12941;48.698;9.310;2024-02-21T01:52:01;98775.7;;;11.45;57.719
24868;BME280;12941;48.698;9.310;2024-02-21T01:53:01;98787;;;11.43;57.855
24868;BME280;12941;48.698;9.310;2024-02-21T01:54:01;98779.3;;;11.41;58.037
24868;BME280;12941;48.698;9.310;2024-02-21T01:55:06;98780.3;;;11.39;58.056
24868;BME280;12941;48.698;9.310;2024-02-21T01:56:11;98771.8;;;11.37;58.085
24868;BME280;12941;48.698;9.310;2024-02-21T01:57:11;98770.2;;;11.36;58.158
24868;BME280;12941;48.698;9.310;2024-02-21T01:58:16;98772;;;11.34;58.059
24868;BME280;12941;48.698;9.310;2024-02-21T01:59:16;98762.90000000001;;;11.25;58.21
24868;BME280;12941;48.698;9.310;2024-02-21T02:00:21;98767.1;;;11.28;58.354
24868;BME280;12941;48.698;9.310;2024-02-21T02:01:21;98767.9;;;11.28;58.386
24868;BME280;12941;48.698;9.310;2024-02-21T02:02:26;98759.5;;;11.25;58.382
24868;BME280;12941;48.698;9.310;2024-02-21T02:03:31;98759.7;;;11.2;58.301
24868;BME280;12941;48.698;9.310;2024-02-21T02:04:37;98757.3;;;11.17;58.522
24868;BME280;12941;48.698;9.310;2024-02-21T02:05:41;98757.4;;;11.14;58.54
24868;BME280;12941;48.698;9.310;2024-02-21T02:06:46;98756.8;;;11.07;58.66
24868;BME280;12941;48.698;9.310;2024-02-21T02:07:51;98754.4;;;11.04;58.7
24868;BME280;12941;48.698;9.310;2024-02-21T02:08:51;98757.2;;;11;58.855
24868;BME280;12941;48.698;9.310;2024-02-21T02:09:56;98753.09999999999;;;10.94;59.085
24868;BME280;12941;48.698;9.310;2024-02-21T02:11:01;98748.1;;;10.91;59.124
24868;BME280;12941;48.698;9.310;2024-02-21T02:12:01;98749.90000000001;;;10.89;59.392
24868;BME280;12941;48.698;9.310;2024-02-21T02:13:06;98748.40000000001;;;10.85;59.504
24868;BME280;12941;48.698;9.310;2024-02-21T02:14:06;98742.5;;;10.83;59.577
24868;BME280;12941;48.698;9.310;2024-02-21T02:15:06;98746.8;;;10.83;59.684
24868;BME280;12941;48.698;9.310;2024-02-21T02:16:11;98753.59999999999;;;10.82;59.705
24868;BME280;12941;48.698;9.310;2024-02-21T02:17:16;98746;;;10.82;59.802
24868;BME280;12941;48.698;9.310;2024-02-21T02:18:16;98745.1;;;10.82;59.716
24868;BME280;12941;48.698;9.310;2024-02-21T02:19:21;98747.7;;;10.8;59.745
24868;BME280;12941;48.698;9.310;2024-02-21T02:20:26;98741.8;;;10.8;59.811
24868;BME280;12941;48.698;9.310;2024-02-21T02:21:27;98748.6;;;10.79;59.906
24868;BME280;12941;48.698;9.310;2024-02-21T02:22:28;98744.5;;;10.76;59.967
24868;BME280;12941;48.698;9.310;2024-02-21T02:23:31;98745.4;;;10.74;59.974
24868;BME280;12941;48.698;9.310;2024-02-21T02:24:31;98737.8;;;10.72;60.112
24868;BME280;12941;48.698;9.310;2024-02-21T02:25:31;98735.29999999999;;;10.71;60.25
24868;BME280;12941;48.698;9.310;2024-02-21T02:26:31;98740.5;;;10.71;60.186
24868;BME280;12941;48.698;9.310;2024-02-21T02:27:41;98732.9;;;10.68;60.214
24868;BME280;12941;48.698;9.310;2024-02-21T02:28:36;98728.7;;;10.67;60.256
24868;BME280;12941;48.698;9.310;2024-02-21T02:29:41;98730.6;;;10.62;60.27
24868;BME280;12941;48.698;9.310;2024-02-21T02:30:41;98728.09999999999;;;10.6;60.246
24868;BME280;12941;48.698;9.310;2024-02-21T02:31:41;98727.20000000001;;;10.6;60.267
24868;BME280;12941;48.698;9.310;2024-02-21T02:32:43;98725;;;10.52;60.397
24868;BME280;12941;48.698;9.310;2024-02-21T02:33:42;98723.40000000001;;;10.5;60.566
24868;BME280;12941;48.698;9.310;2024-02-21T02:34:46;98724.5;;;10.44;60.74
24868;BME280;12941;48.698;9.310;2024-02-21T02:35:46;98722.7;;;10.44;60.859
24868;BME280;12941;48.698;9.310;2024-02-21T02:36:51;98712.59999999999;;;10.41;60.78
24868;BME280;12941;48.698;9.310;2024-02-21T02:37:56;98718.8;;;10.36;61.074
24868;BME280;12941;48.698;9.310;2024-02-21T02:38:56;98712;;;10.35;61.181
24868;BME280;12941;48.698;9.310;2024-02-21T02:39:56;98713;;;10.32;61.241
24868;BME280;12941;48.698;9.310;2024-02-21T02:41:01;98710.40000000001;;;10.32;61.349
24868;BME280;12941;48.698;9.310;2024-02-21T02:42:01;98704.5;;;10.32;61.488
24868;BME280;12941;48.698;9.310;2024-02-21T02:43:01;98716.4;;;10.31;61.455
24868;BME280;12941;48.698;9.310;2024-02-21T02:44:01;98715.7;;;10.29;61.345
24868;BME280;12941;48.698;9.310;2024-02-21T02:45:06;98715.9;;;10.25;61.37
24868;BME280;12941;48.698;9.310;2024-02-21T02:46:11;98710.7;;;10.25;61.446
24868;BME280;12941;48.698;9.310;2024-02-21T02:47:11;98709.90000000001;;;10.24;61.392
24868;BME280;12941;48.698;9.310;2024-02-21T02:48:16;98709.1;;;10.22;61.519
24868;BME280;12941;48.698;9.310;2024-02-21T02:49:16;98713.3;;;10.23;61.69
24868;BME280;12941;48.698;9.310;2024-02-21T02:50:21;98711.6;;;10.25;61.597
24868;BME280;12941;48.698;9.310;2024-02-21T02:51:26;98709.90000000001;;;10.24;61.381
24868;BME280;12941;48.698;9.310;2024-02-21T02:52:26;98709.1;;;10.24;61.326
24868;BME280;12941;48.698;9.310;2024-02-21T02:53:31;98705.7;;;10.22;61.474
24868;BME280;12941;48.698;9.310;2024-02-21T02:54:36;98708.3;;;10.2;61.419
24868;BME280;12941;48.698;9.310;2024-02-21T02:55:36;98704.1;;;10.19;61.438
24868;BME280;12941;48.698;9.310;2024-02-21T02:56:36;98700.7;;;10.19;61.608
24868;BME280;12941;48.698;9.310;2024-02-21T02:57:41;98699;;;10.18;61.749
24868;BME280;12941;48.698;9.310;2024-02-21T02:58:41;98697.5;;;10.14;61.656
24868;BME280;12941;48.698;9.310;2024-02-21T02:59:41;98694.1;;;10.13;61.646
24868;BME280;12941;48.698;9.310;2024-02-21T03:00:41;98700;;;10.14;61.807
24868;BME280;12941;48.698;9.310;2024-02-21T03:01:46;98692.3;;;10.14;61.85
24868;BME280;12941;48.698;9.310;2024-02-21T03:02:51;98691.5;;;10.13;61.774
24868;BME280;12941;48.698;9.310;2024-02-21T03:03:56;98693.2;;;10.14;61.593
24868;BME280;12941;48.698;9.310;2024-02-21T03:04:56;98694.8;;;10.17;61.531
24868;BME280;12941;48.698;9.310;2024-02-21T03:06:01;98679.4;;;10.18;61.501
24868;BME280;12941;48.698;9.310;2024-02-21T03:07:06;98680.2;;;10.19;61.619
24868;BME280;12941;48.698;9.310;2024-02-21T03:08:11;98679.3;;;10.21;61.451
24868;BME280;12941;48.698;9.310;2024-02-21T03:09:16;98686.1;;;10.22;61.486
24868;BME280;12941;48.698;9.310;2024-02-21T03:10:16;98681.8;;;10.21;61.526
24868;BME280;12941;48.698;9.310;2024-02-21T03:11:21;98672.40000000001;;;10.23;61.465
24868;BME280;12941;48.698;9.310;2024-02-21T03:12:21;98670.6;;;10.25;61.489
24868;BME280;12941;48.698;9.310;2024-02-21T03:13:21;98668;;;10.25;61.349
24868;BME280;12941;48.698;9.310;2024-02-21T03:14:21;98670.4;;;10.28;61.397
24868;BME280;12941;48.698;9.310;2024-02-21T03:15:21;98665.3;;;10.28;61.397
24868;BME280;12941;48.698;9.310;2024-02-21T03:16:26;98661.90000000001;;;10.29;61.366
24868;BME280;12941;48.698;9.310;2024-02-21T03:17:31;98654.8;;;10.34;61.675
24868;BME280;12941;48.698;9.310;2024-02-21T03:18:36;98654.7;;;10.37;61.776
24868;BME280;12941;48.698;9.310;2024-02-21T03:19:36;98655.5;;;10.39;61.994
24868;BME280;12941;48.698;9.310;2024-02-21T03:20:41;98656.2;;;10.41;61.729
24868;BME280;12941;48.698;9.310;2024-02-21T03:21:46;98651;;;10.44;61.646
24868;BME280;12941;48.698;9.310;2024-02-21T03:22:51;98649.90000000001;;;10.49;61.544
24868;BME280;12941;48.698;9.310;2024-02-21T03:23:51;98647.2;;;10.52;61.506
24868;BME280;12941;48.698;9.310;2024-02-21T03:24:51;98648.8;;;10.56;61.296
24868;BME280;12941;48.698;9.310;2024-02-21T03:25:56;98646.90000000001;;;10.61;61.066
24868;BME280;12941;48.698;9.310;2024-02-21T03:26:56;98648.40000000001;;;10.65;61.04
24868;BME280;12941;48.698;9.310;2024-02-21T03:27:56;98644;;;10.68;61.013
24868;BME280;12941;48.698;9.310;2024-02-21T03:29:01;98645.5;;;10.72;60.63
24868;BME280;12941;48.698;9.310;2024-02-21T03:30:01;98644.5;;;10.76;60.754
24868;BME280;12941;48.698;9.310;2024-02-21T03:31:01;98636.6;;;10.8;60.414
24868;BME280;12941;48.698;9.310;2024-02-21T03:32:01;98633.90000000001;;;10.83;59.996
24868;BME280;12941;48.698;9.310;2024-02-21T03:33:06;98631.2;;;10.86;59.904
24868;BME280;12941;48.698;9.310;2024-02-21T03:34:06;98636.2;;;10.89;60.059
24868;BME280;12941;48.698;9.310;2024-02-21T03:35:06;98632.7;;;10.91;59.977
24868;BME280;12941;48.698;9.310;2024-02-21T03:36:06;98637.8;;;10.93;59.041
24868;BME280;12941;48.698;9.310;2024-02-21T03:37:11;98638.59999999999;;;10.93;59.191
24868;BME280;12941;48.698;9.310;2024-02-21T03:38:11;98648.90000000001;;;10.93;59.159
24868;BME280;12941;48.698;9.310;2024-02-21T03:39:16;98652.3;;;10.92;59.094
24868;BME280;12941;48.698;9.310;2024-02-21T03:40:16;98650.7;;;10.91;59.2
24868;BME280;12941;48.698;9.310;2024-02-21T03:41:16;98650.5;;;10.94;59.226
24868;BME280;12941;48.698;9.310;2024-02-21T03:42:16;98653.9;;;10.96;59.228
24868;BME280;12941;48.698;9.310;2024-02-21T03:43:21;98654.6;;;11;59.266
24868;BME280;12941;48.698;9.310;2024-02-21T03:44:21;98654.5;;;11.01;59.365
24868;BME280;12941;48.698;9.310;2024-02-21T03:45:26;98651;;;11.04;59.702
24868;BME280;12941;48.698;9.310;2024-02-21T03:46:26;98653.3;;;11.08;59.827
24868;BME280;12941;48.698;9.310;2024-02-21T03:47:31;98654.8;;;11.13;59.951
24868;BME280;12941;48.698;9.310;2024-02-21T03:48:36;98658;;;11.18;60.132
24868;BME280;12941;48.698;9.310;2024-02-21T03:49:41;98655.3;;;11.21;60.405
24868;BME280;12941;48.698;9.310;2024-02-21T03:50:46;98641.5;;;11.25;60.379
24868;BME280;12941;48.698;9.310;2024-02-21T03:51:51;98639.59999999999;;;11.28;60.265
24868;BME280;12941;48.698;9.310;2024-02-21T03:52:51;98636;;;11.32;60.109
24868;BME280;12941;48.698;9.310;2024-02-21T03:53:56;98633.2;;;11.37;60.072
24868;BME280;12941;48.698;9.310;2024-02-21T03:54:56;98627.9;;;11.4;60.01
24868;BME280;12941;48.698;9.310;2024-02-21T03:55:56;98622.7;;;11.43;59.864
24868;BME280;12941;48.698;9.310;2024-02-21T03:57:01;98619.2;;;11.44;59.379
24868;BME280;12941;48.698;9.310;2024-02-21T03:58:06;98637.09999999999;;;11.45;59.252
24868;BME280;12941;48.698;9.310;2024-02-21T03:59:06;98633.6;;;11.47;59.146
24868;BME280;12941;48.698;9.310;2024-02-21T04:00:13;98632.7;;;11.48;59.114
24868;BME280;12941;48.698;9.310;2024-02-21T04:01:16;98640.4;;;11.48;59.212
24868;BME280;12941;48.698;9.310;2024-02-21T04:02:16;98643.8;;;11.48;58.965
24868;BME280;12941;48.698;9.310;2024-02-21T04:03:21;98642.1;;;11.49;58.792
24868;BME280;12941;48.698;9.310;2024-02-21T04:04:21;98644.6;;;11.5;59.518
24868;BME280;12941;48.698;9.310;2024-02-21T04:05:22;98646.2;;;11.51;60.296
24868;BME280;12941;48.698;9.310;2024-02-21T04:06:26;98647;;;11.53;60.688
24868;BME280;12941;48.698;9.310;2024-02-21T04:07:31;98641;;;11.54;60.841
24868;BME280;12941;48.698;9.310;2024-02-21T04:08:36;98641;;;11.54;61.046
24868;BME280;12941;48.698;9.310;2024-02-21T04:09:36;98639.3;;;11.53;61.185
24868;BME280;12941;48.698;9.310;2024-02-21T04:10:36;98631.7;;;11.52;61.354
24868;BME280;12941;48.698;9.310;2024-02-21T04:11:41;98632.5;;;11.52;61.367
24868;BME280;12941;48.698;9.310;2024-02-21T04:12:41;98624;;;11.5;61.191
24868;BME280;12941;48.698;9.310;2024-02-21T04:13:41;98628.4;;;11.48;61.07
24868;BME280;12941;48.698;9.310;2024-02-21T04:14:41;98619.9;;;11.46;60.937
24868;BME280;12941;48.698;9.310;2024-02-21T04:15:47;98631.1;;;11.45;61.13
24868;BME280;12941;48.698;9.310;2024-02-21T04:16:51;98629.5;;;11.44;61.236
24868;BME280;12941;48.698;9.310;2024-02-21T04:17:51;98617.5;;;11.43;61.225
24868;BME280;12941;48.698;9.310;2024-02-21T04:18:56;98614.20000000001;;;11.41;61.308
24868;BME280;12941;48.698;9.310;2024-02-21T04:20:01;98604.9;;;11.38;61.314
24868;BME280;12941;48.698;9.310;2024-02-21T04:20:56;98607.6;;;11.37;61.012
24868;BME280;12941;48.698;9.310;2024-02-21T04:22:02;98603.3;;;11.36;61.02
24868;BME280;12941;48.698;9.310;2024-02-21T04:23:06;98606.7;;;11.36;60.967
24868;BME280;12941;48.698;9.310;2024-02-21T04:24:06;98596.5;;;11.36;60.945
24868;BME280;12941;48.698;9.310;2024-02-21T04:25:07;98597.29999999999;;;11.37;60.741
24868;BME280;12941;48.698;9.310;2024-02-21T04:26:06;98592.2;;;11.37;60.73
24868;BME280;12941;48.698;9.310;2024-02-21T04:27:11;98593.8;;;11.38;60.882
24868;BME280;12941;48.698;9.310;2024-02-21T04:28:12;98589.4;;;11.4;60.896
24868;BME280;12941;48.698;9.310;2024-02-21T04:29:16;98587.7;;;11.4;60.356
24868;BME280;12941;48.698;9.310;2024-02-21T04:30:16;98587.59999999999;;;11.42;60.349
24868;BME280;12941;48.698;9.310;2024-02-21T04:31:16;98581.6;;;11.41;60.489
24868;BME280;12941;48.698;9.310;2024-02-21T04:32:21;98579.9;;;11.42;60.489
24868;BME280;12941;48.698;9.310;2024-02-21T04:33:21;98579;;;11.43;60.469
24868;BME280;12941;48.698;9.310;2024-02-21T04:34:26;98569.6;;;11.42;60.5
24868;BME280;12941;48.698;9.310;2024-02-21T04:35:26;98567.9;;;11.42;60.316
24868;BME280;12941;48.698;9.310;2024-02-21T04:36:26;98569.6;;;11.42;60.359
24868;BME280;12941;48.698;9.310;2024-02-21T04:37:35;98562.7;;;11.44;60.168
24868;BME280;12941;48.698;9.310;2024-02-21T04:38:36;98561.90000000001;;;11.43;59.897
24868;BME280;12941;48.698;9.310;2024-02-21T04:39:42;98571.2;;;11.46;59.544
24868;BME280;12941;48.698;9.310;2024-02-21T04:40:42;98566.9;;;11.45;59.078
24868;BME280;12941;48.698;9.310;2024-02-21T04:41:47;98568.7;;;11.44;58.591
24868;BME280;12941;48.698;9.310;2024-02-21T04:42:51;98567.1;;;11.42;58.427
24868;BME280;12941;48.698;9.310;2024-02-21T04:43:57;98568;;;11.41;58.414
24868;BME280;12941;48.698;9.310;2024-02-21T04:44:57;98564.70000000001;;;11.39;58.391
24868;BME280;12941;48.698;9.310;2024-02-21T04:46:01;98569.8;;;11.39;58.585
24868;BME280;12941;48.698;9.310;2024-02-21T04:47:06;98567.2;;;11.39;58.865
24868;BME280;12941;48.698;9.310;2024-02-21T04:48:12;98571.5;;;11.4;59.006
24868;BME280;12941;48.698;9.310;2024-02-21T04:49:16;98571.40000000001;;;11.41;59.183
24868;BME280;12941;48.698;9.310;2024-02-21T04:50:16;98568;;;11.41;59.343
24868;BME280;12941;48.698;9.310;2024-02-21T04:51:16;98573;;;11.42;59.441
24868;BME280;12941;48.698;9.310;2024-02-21T04:52:22;98566.2;;;11.43;59.443
24868;BME280;12941;48.698;9.310;2024-02-21T04:53:26;98567;;;11.43;59.347
24868;BME280;12941;48.698;9.310;2024-02-21T04:54:27;98569.5;;;11.45;59.359
24868;BME280;12941;48.698;9.310;2024-02-21T04:55:31;98566.9;;;11.45;59.294
24868;BME280;12941;48.698;9.310;2024-02-21T04:56:31;98568.5;;;11.48;59.363
24868;BME280;12941;48.698;9.310;2024-02-21T04:57:31;98562.59999999999;;;11.47;59.523
24868;BME280;12941;48.698;9.310;2024-02-21T04:58:37;98563.5;;;11.46;59.544
24868;BME280;12941;48.698;9.310;2024-02-21T04:59:37;98565.09999999999;;;11.47;59.566
24868;BME280;12941;48.698;9.310;2024-02-21T05:00:37;98569.4;;;11.48;59.473
24868;BME280;12941;48.698;9.310;2024-02-21T05:01:37;98560.79999999999;;;11.49;59.354
24868;BME280;12941;48.698;9.310;2024-02-21T05:02:41;98565.09999999999;;;11.49;59.289
24868;BME280;12941;48.698;9.310;2024-02-21T05:03:47;98562.40000000001;;;11.5;59.313
24868;BME280;12941;48.698;9.310;2024-02-21T05:04:52;98565;;;11.5;59.259
24868;BME280;12941;48.698;9.310;2024-02-21T05:05:52;98574.40000000001;;;11.51;59.259
24868;BME280;12941;48.698;9.310;2024-02-21T05:06:52;98571.8;;;11.51;59.27
24868;BME280;12941;48.698;9.310;2024-02-21T05:07:57;98582.1;;;11.51;59.28
24868;BME280;12941;48.698;9.310;2024-02-21T05:08:57;98583.8;;;11.51;59.161
24868;BME280;12941;48.698;9.310;2024-02-21T05:10:00;98588.09999999999;;;11.5;59.118
24868;BME280;12941;48.698;9.310;2024-02-21T05:11:02;98588.09999999999;;;11.5;59.064
24868;BME280;12941;48.698;9.310;2024-02-21T05:12:02;98587.3;;;11.5;59.096
24868;BME280;12941;48.698;9.310;2024-02-21T05:13:02;98579.6;;;11.5;59.149
24868;BME280;12941;48.698;9.310;2024-02-21T05:14:02;98587.3;;;11.5;59.106
24868;BME280;12941;48.698;9.310;2024-02-21T05:15:07;98584.79999999999;;;11.48;59.148
24868;BME280;12941;48.698;9.310;2024-02-21T05:16:07;98586.6;;;11.46;59.112
24868;BME280;12941;48.698;9.310;2024-02-21T05:17:12;98587.40000000001;;;11.47;59.178
24868;BME280;12941;48.698;9.310;2024-02-21T05:18:12;98589.09999999999;;;11.46;59.252
24868;BME280;12941;48.698;9.310;2024-02-21T05:19:17;98589.20000000001;;;11.44;59.186
24868;BME280;12941;48.698;9.310;2024-02-21T05:20:22;98591.8;;;11.43;59.227
24868;BME280;12941;48.698;9.310;2024-02-21T05:21:22;98593.6;;;11.42;59.301
24868;BME280;12941;48.698;9.310;2024-02-21T05:22:22;98599.5;;;11.43;59.237
24868;BME280;12941;48.698;9.310;2024-02-21T05:23:26;98595.3;;;11.42;59.236
24868;BME280;12941;48.698;9.310;2024-02-21T05:24:26;98598;;;11.4;59.18
24868;BME280;12941;48.698;9.310;2024-02-21T05:25:32;98595.4;;;11.4;59.158